Terminal Aerodrome Forecast
Issued by NWS

Home | Current Version | Previous Version | Text Only | Print | Product List | Glossary On
Versions: 1 2 3 4 5 6 7 8 9 10 11 12 13 14 15 16 17 18 19 20 21 22 23 24
000
FTUS43 KMQT 201100
TAFIWD
TAF
KIWD 201135Z 2012/2112 24009KT P6SM OVC015
     FM201400 28010KT P6SM BKN015
     FM201900 28010KT P6SM SCT025
     FM202300 VRB03KT P6SM SCT030
     FM210300 VRB03KT P6SM BKN050 PROB30 2105/2111 -SHRA BKN015
      AMD LTD TO CLD VIS AND WIND=

USA.gov is the U.S. government's official web portal to all federal, state and local government web resources and services.